createdAt,value
2023-05-01T00:00:10.391Z,0.00
2023-05-01T00:01:10.439Z,0.00
2023-05-01T00:02:10.410Z,0.00
2023-05-01T00:03:10.620Z,0.00
2023-05-01T00:04:10.622Z,0.00
2023-05-01T00:05:10.450Z,0.00
2023-05-01T00:06:10.417Z,0.00
2023-05-01T00:07:10.338Z,0.00
2023-05-01T00:08:10.322Z,0.00
2023-05-01T00:09:10.321Z,0.00
2023-05-01T00:10:10.371Z,0.00
2023-05-01T00:11:10.289Z,0.00
2023-05-01T00:12:10.311Z,0.00
2023-05-01T00:13:10.298Z,0.00
2023-05-01T00:14:10.307Z,0.00
2023-05-01T00:15:10.256Z,0.00
2023-05-01T00:16:10.322Z,0.00
2023-05-01T00:17:10.226Z,0.00
2023-05-01T00:18:10.248Z,0.00
2023-05-01T00:19:10.271Z,0.00
2023-05-01T00:20:10.215Z,0.00
2023-05-01T00:21:10.165Z,0.00
2023-05-01T00:22:10.162Z,0.00
2023-05-01T00:23:10.159Z,0.00
2023-05-01T00:24:10.293Z,0.00
2023-05-01T00:25:10.189Z,0.00
2023-05-01T00:26:10.142Z,0.00
2023-05-01T00:27:10.143Z,0.00
2023-05-01T00:28:10.099Z,0.00
2023-05-01T00:29:10.107Z,0.00
2023-05-01T00:30:10.123Z,0.00
2023-05-01T00:31:10.093Z,0.00
2023-05-01T00:32:10.166Z,0.00
2023-05-01T00:33:10.241Z,0.00
2023-05-01T00:34:10.044Z,0.00
2023-05-01T00:35:10.047Z,0.00
2023-05-01T00:36:10.093Z,0.00
2023-05-01T00:37:10.048Z,0.00
2023-05-01T00:38:09.982Z,0.00
2023-05-01T00:39:09.992Z,0.00
2023-05-01T00:40:10.005Z,0.00
2023-05-01T00:41:09.956Z,0.00
2023-05-01T00:42:09.998Z,0.00
2023-05-01T00:43:09.958Z,0.00
2023-05-01T00:44:09.943Z,0.00
2023-05-01T00:45:09.966Z,0.00
2023-05-01T00:46:10.006Z,0.00
2023-05-01T00:47:09.941Z,0.00
2023-05-01T00:48:10.112Z,0.00
2023-05-01T00:49:09.863Z,0.00
2023-05-01T00:50:09.870Z,0.00
2023-05-01T00:51:09.854Z,0.00
2023-05-01T00:52:09.879Z,0.00
2023-05-01T00:53:09.865Z,0.00
2023-05-01T00:54:09.902Z,0.00
2023-05-01T00:55:09.818Z,0.00
2023-05-01T00:56:09.809Z,0.00
2023-05-01T00:57:09.787Z,0.00
2023-05-01T00:58:09.797Z,0.00
2023-05-01T00:59:09.802Z,0.00
2023-05-01T02:18:34.974Z,0.00
2023-05-01T02:19:31.189Z,0.00
2023-05-01T02:20:31.181Z,0.00
2023-05-01T02:21:31.176Z,0.00
2023-05-01T02:22:31.173Z,0.00
2023-05-01T02:23:31.183Z,0.00
2023-05-01T02:24:31.194Z,0.00
2023-05-01T02:25:31.216Z,0.00
2023-05-01T02:26:31.123Z,0.00
2023-05-01T02:27:31.126Z,0.00
2023-05-01T02:28:31.098Z,0.00
2023-05-01T02:29:31.134Z,0.00
2023-05-01T02:30:31.069Z,0.00
2023-05-01T02:31:31.142Z,0.00
2023-05-01T02:32:31.118Z,0.00
2023-05-01T02:33:31.056Z,0.00
2023-05-01T02:34:31.059Z,0.00
2023-05-01T02:35:31.094Z,0.00
2023-05-01T02:36:31.035Z,0.00
2023-05-01T02:37:31.012Z,0.00
2023-05-01T02:38:31.008Z,0.00
2023-05-01T02:39:30.988Z,0.00
2023-05-01T02:40:31.005Z,0.00
2023-05-01T02:41:31.025Z,0.00
2023-05-01T02:42:30.950Z,0.00
2023-05-01T02:43:30.950Z,0.00
2023-05-01T02:44:30.925Z,0.00
2023-05-01T02:45:30.943Z,0.00
2023-05-01T02:46:30.997Z,0.00
2023-05-01T02:47:30.960Z,0.00
2023-05-01T02:48:30.897Z,0.00
2023-05-01T02:49:30.881Z,0.00
2023-05-01T02:50:30.891Z,0.00
2023-05-01T02:51:30.855Z,0.00
2023-05-01T02:52:30.876Z,0.00
2023-05-01T02:53:30.835Z,0.00
2023-05-01T02:54:30.826Z,0.00
2023-05-01T02:55:30.813Z,0.00
2023-05-01T02:56:30.822Z,0.00
2023-05-01T02:57:30.873Z,0.00
2023-05-01T02:58:30.780Z,0.00
2023-05-01T02:59:30.780Z,0.00
2023-05-01T03:00:30.824Z,0.00
2023-05-01T03:01:30.810Z,0.00
2023-05-01T03:02:30.735Z,0.00
2023-05-01T03:03:30.806Z,0.00
2023-05-01T03:04:30.803Z,0.00
2023-05-01T03:05:30.696Z,0.00
2023-05-01T03:06:30.789Z,0.00
2023-05-01T03:07:30.692Z,0.00
2023-05-01T03:08:30.703Z,0.00
2023-05-01T03:09:30.695Z,0.00
2023-05-01T03:10:30.657Z,0.00
2023-05-01T03:11:30.664Z,0.00
2023-05-01T03:12:30.640Z,0.00
2023-05-01T03:13:30.696Z,0.00
2023-05-01T03:14:30.605Z,0.00
2023-05-01T03:15:30.597Z,0.00
2023-05-01T03:16:30.680Z,0.00
2023-05-01T03:17:30.654Z,0.00
2023-05-01T03:18:30.677Z,0.00
2023-05-01T03:19:30.540Z,0.00
2023-05-01T03:20:30.558Z,0.00
2023-05-01T03:21:30.526Z,0.00
2023-05-01T03:22:30.545Z,0.00
2023-05-01T03:23:30.506Z,0.00
2023-05-01T03:24:30.556Z,0.00
2023-05-01T03:25:30.491Z,0.00
2023-05-01T03:26:30.491Z,0.00
2023-05-01T03:27:30.474Z,0.00
2023-05-01T03:28:30.481Z,0.00
2023-05-01T03:29:30.539Z,0.00
2023-05-01T03:30:30.448Z,0.00
2023-05-01T03:31:30.472Z,0.00
2023-05-01T03:32:30.488Z,0.00
2023-05-01T03:33:30.402Z,0.00
2023-05-01T03:34:30.589Z,0.00
2023-05-01T03:35:30.436Z,0.00
2023-05-01T03:36:30.443Z,0.00
2023-05-01T03:37:30.361Z,0.00
2023-05-01T03:38:30.365Z,0.00
2023-05-01T03:39:30.336Z,0.00
2023-05-01T03:40:30.345Z,0.00
2023-05-01T03:41:30.323Z,0.00
2023-05-01T03:42:30.396Z,0.00
2023-05-01T03:43:30.305Z,0.00
2023-05-01T03:44:30.296Z,0.00
2023-05-01T03:45:30.276Z,0.00
2023-05-01T03:46:30.354Z,0.00
2023-05-01T03:47:30.276Z,0.00
2023-05-01T03:48:30.293Z,0.00
2023-05-01T03:49:30.235Z,0.00
2023-05-01T03:50:30.230Z,0.00
2023-05-01T03:51:30.206Z,0.00
2023-05-01T03:52:30.215Z,0.00
2023-05-01T03:53:30.294Z,0.00
2023-05-01T03:54:30.263Z,0.00
2023-05-01T03:55:30.169Z,0.00
2023-05-01T03:56:30.159Z,0.00
2023-05-01T03:57:30.169Z,0.00
2023-05-01T03:58:30.157Z,0.00
2023-05-01T03:59:30.136Z,0.00
2023-05-01T04:00:30.139Z,0.00
2023-05-01T04:01:30.115Z,0.00
2023-05-01T04:02:30.236Z,0.00
2023-05-01T04:03:30.160Z,0.00
2023-05-01T04:04:30.331Z,0.00
2023-05-01T04:05:30.070Z,0.00
2023-05-01T04:06:30.112Z,0.00
2023-05-01T04:07:30.151Z,0.00
2023-05-01T04:08:30.063Z,0.00
2023-05-01T04:09:30.034Z,0.00
2023-05-01T04:10:30.037Z,0.00
2023-05-01T04:11:30.027Z,0.00
2023-05-01T04:12:30.046Z,0.00
2023-05-01T04:13:29.979Z,0.00
2023-05-01T04:14:29.998Z,0.00
2023-05-01T04:15:29.953Z,0.00
2023-05-01T04:16:29.973Z,5.62
2023-05-01T04:17:29.994Z,5.62
2023-05-01T04:18:29.934Z,5.62
2023-05-01T04:19:29.936Z,5.62
2023-05-01T04:20:29.989Z,5.62
2023-05-01T04:21:29.895Z,5.62
2023-05-01T04:22:29.907Z,5.62
2023-05-01T04:23:29.875Z,5.62
2023-05-01T04:24:29.884Z,5.62
2023-05-01T04:25:29.887Z,5.62
2023-05-01T04:26:29.931Z,5.62
2023-05-01T04:27:29.872Z,5.62
2023-05-01T04:28:29.817Z,11.25
2023-05-01T04:29:29.820Z,11.25
2023-05-01T04:30:29.805Z,11.25
2023-05-01T04:31:29.847Z,11.25
2023-05-01T04:32:29.829Z,11.25
2023-05-01T04:33:29.808Z,11.25
2023-05-01T04:34:29.779Z,11.25
2023-05-01T04:35:29.753Z,11.25
2023-05-01T04:36:29.768Z,16.88
2023-05-01T04:37:29.752Z,16.88
2023-05-01T04:38:29.753Z,16.88
2023-05-01T04:39:29.708Z,16.88
2023-05-01T04:40:29.691Z,16.88
2023-05-01T04:41:29.862Z,16.88
2023-05-01T04:42:29.711Z,16.88
2023-05-01T04:43:29.756Z,16.88
2023-05-01T04:44:29.654Z,22.50
2023-05-01T04:45:29.644Z,22.50
2023-05-01T04:46:29.687Z,22.50
2023-05-01T04:47:29.665Z,22.50
2023-05-01T04:48:29.659Z,28.12
2023-05-01T04:49:29.605Z,28.12
2023-05-01T04:50:29.621Z,28.12
2023-05-01T04:51:29.648Z,33.75
2023-05-01T04:52:29.570Z,33.75
2023-05-01T04:53:29.570Z,33.75
2023-05-01T04:54:29.570Z,39.38
2023-05-01T04:55:31.102Z,39.38
2023-05-01T04:56:29.523Z,39.38
2023-05-01T04:57:29.550Z,39.38
2023-05-01T04:58:29.635Z,45.00
2023-05-01T04:59:29.526Z,45.00
2023-05-01T05:00:29.638Z,45.00
2023-05-01T05:01:29.557Z,45.00
2023-05-01T05:02:29.542Z,50.62
2023-05-01T05:03:29.581Z,50.62
2023-05-01T05:04:29.446Z,50.62
2023-05-01T05:05:29.435Z,56.25
2023-05-01T05:06:29.511Z,56.25
2023-05-01T05:07:29.421Z,56.25
2023-05-01T05:08:29.487Z,56.25
2023-05-01T05:09:29.402Z,56.25
2023-05-01T05:10:29.385Z,61.88
2023-05-01T05:11:29.371Z,61.88
2023-05-01T05:12:29.387Z,61.88
2023-05-01T05:13:29.752Z,61.88
2023-05-01T05:14:29.394Z,61.88
2023-05-01T05:15:29.626Z,67.50
2023-05-01T05:16:29.357Z,67.50
2023-05-01T05:17:29.449Z,73.12
2023-05-01T05:18:29.296Z,73.12
2023-05-01T05:19:29.422Z,78.75
2023-05-01T05:20:29.412Z,78.75
2023-05-01T05:21:29.366Z,78.75
2023-05-01T05:22:29.245Z,84.38
2023-05-01T05:23:29.344Z,84.38
2023-05-01T05:24:29.265Z,90.00
2023-05-01T05:25:29.241Z,90.00
2023-05-01T05:26:29.224Z,90.00
2023-05-01T05:27:29.231Z,90.00
2023-05-01T05:28:29.247Z,90.00
2023-05-01T05:29:29.183Z,90.00
2023-05-01T05:30:29.223Z,90.00
2023-05-01T05:31:29.199Z,90.00
2023-05-01T05:32:29.207Z,90.00
2023-05-01T05:33:29.187Z,95.62
2023-05-01T05:34:29.158Z,95.62
2023-05-01T05:35:29.131Z,95.62
2023-05-01T05:36:29.104Z,95.62
2023-05-01T05:37:29.121Z,95.62
2023-05-01T05:38:29.100Z,95.62
2023-05-01T05:39:29.085Z,95.62
2023-05-01T05:40:29.096Z,95.62
2023-05-01T05:41:29.109Z,95.62
2023-05-01T05:42:29.063Z,95.62
2023-05-01T05:43:29.043Z,95.62
2023-05-01T05:44:29.072Z,95.62
2023-05-01T05:45:29.093Z,101.25
2023-05-01T05:46:33.948Z,101.25
2023-05-01T05:47:29.006Z,101.25
2023-05-01T05:48:29.300Z,106.88
2023-05-01T05:49:28.983Z,112.50
2023-05-01T05:50:29.116Z,112.50
2023-05-01T05:51:28.982Z,118.12
2023-05-01T05:52:28.986Z,118.12
2023-05-01T05:53:29.083Z,123.75
2023-05-01T05:54:28.916Z,129.38
2023-05-01T05:55:28.934Z,129.38
2023-05-01T05:56:28.938Z,135.00
2023-05-01T05:57:28.901Z,140.62
2023-05-01T05:58:28.891Z,140.62
2023-05-01T05:59:28.866Z,146.25
2023-05-01T06:00:28.856Z,146.25
2023-05-01T06:01:28.889Z,146.25
2023-05-01T06:02:28.924Z,151.88
2023-05-01T06:03:28.956Z,151.88
2023-05-01T06:04:28.841Z,151.88
2023-05-01T06:05:28.955Z,157.50
2023-05-01T06:06:28.829Z,157.50
2023-05-01T06:07:28.826Z,157.50
2023-05-01T06:08:28.903Z,157.50
2023-05-01T06:09:28.759Z,157.50
2023-05-01T06:10:28.792Z,157.50
2023-05-01T06:11:28.771Z,163.12
2023-05-01T06:12:28.761Z,163.12
2023-05-01T06:13:28.771Z,163.12
2023-05-01T06:14:28.724Z,168.75
2023-05-01T06:15:28.731Z,168.75
2023-05-01T06:16:28.799Z,168.75
2023-05-01T06:17:28.692Z,168.75
2023-05-01T06:18:28.728Z,174.38
2023-05-01T06:19:28.669Z,174.38
2023-05-01T06:20:28.704Z,168.75
2023-05-01T06:21:28.654Z,168.75
2023-05-01T06:22:28.624Z,168.75
2023-05-01T06:23:28.611Z,168.75
2023-05-01T06:24:28.653Z,168.75
2023-05-01T06:25:28.611Z,168.75
2023-05-01T06:26:28.687Z,168.75
2023-05-01T06:27:28.568Z,168.75
2023-05-01T06:28:28.622Z,163.12
2023-05-01T06:29:28.601Z,168.75
2023-05-01T06:30:28.683Z,168.75
2023-05-01T06:31:29.436Z,168.75
2023-05-01T06:32:28.593Z,168.75
2023-05-01T06:33:28.606Z,168.75
2023-05-01T06:34:28.570Z,174.38
2023-05-01T06:35:28.505Z,174.38
2023-05-01T06:36:28.585Z,174.38
2023-05-01T06:37:28.538Z,174.38
2023-05-01T06:38:28.452Z,174.38
2023-05-01T06:39:28.463Z,174.38
2023-05-01T06:40:28.624Z,174.38
2023-05-01T06:41:28.464Z,180.00
2023-05-01T06:42:28.464Z,180.00
2023-05-01T06:43:28.410Z,185.62
2023-05-01T06:44:29.111Z,191.25
2023-05-01T06:45:28.462Z,191.25
2023-05-01T06:46:28.416Z,191.25
2023-05-01T06:47:28.398Z,191.25
2023-05-01T06:48:28.362Z,196.88
2023-05-01T06:49:28.377Z,196.88
2023-05-01T06:50:28.346Z,196.88
2023-05-01T06:51:28.336Z,191.25
2023-05-01T06:52:28.303Z,196.88
2023-05-01T06:53:28.431Z,196.88
2023-05-01T06:54:28.308Z,202.50
2023-05-01T06:55:28.300Z,202.50
2023-05-01T06:56:28.406Z,202.50
2023-05-01T06:57:28.268Z,208.12
2023-05-01T06:58:28.252Z,208.12
2023-05-01T06:59:28.230Z,208.12
2023-05-01T07:00:28.306Z,213.75
2023-05-01T07:01:28.325Z,213.75
2023-05-01T07:02:28.268Z,213.75
2023-05-01T07:03:28.350Z,219.38
2023-05-01T07:04:28.176Z,225.00
2023-05-01T07:05:28.223Z,225.00
2023-05-01T07:06:28.414Z,230.62
2023-05-01T07:07:28.159Z,236.25
2023-05-01T07:08:28.187Z,241.88
2023-05-01T07:09:28.126Z,241.88
2023-05-01T07:10:28.149Z,247.50
2023-05-01T07:11:28.138Z,247.50
2023-05-01T07:12:28.095Z,253.12
2023-05-01T07:13:28.163Z,253.12
2023-05-01T07:14:28.113Z,258.75
2023-05-01T07:15:28.057Z,258.75
2023-05-01T07:16:28.086Z,258.75
2023-05-01T07:17:28.103Z,258.75
2023-05-01T07:18:28.033Z,258.75
2023-05-01T07:20:45.304Z,264.38
2023-05-01T07:21:45.320Z,264.38
2023-05-01T07:22:45.268Z,270.00
2023-05-01T07:23:45.258Z,275.62
2023-05-01T07:24:45.334Z,275.62
2023-05-01T07:25:45.259Z,275.62
2023-05-01T07:26:45.226Z,275.62
2023-05-01T07:27:45.245Z,270.00
2023-05-01T07:28:45.211Z,270.00
2023-05-01T07:29:45.203Z,270.00
2023-05-01T07:30:45.291Z,270.00
2023-05-01T07:31:45.304Z,270.00
2023-05-01T07:32:45.327Z,270.00
2023-05-01T07:33:45.247Z,275.62
2023-05-01T07:34:45.148Z,281.25
2023-05-01T07:35:45.131Z,286.88
2023-05-01T07:36:45.151Z,298.12
2023-05-01T07:37:45.221Z,303.75
2023-05-01T07:38:45.109Z,303.75
2023-05-01T07:39:45.160Z,303.75
2023-05-01T07:40:45.120Z,303.75
2023-05-01T07:41:45.093Z,298.12
2023-05-01T07:42:45.051Z,298.12
2023-05-01T07:43:45.077Z,292.50
2023-05-01T07:44:45.073Z,281.25
2023-05-01T07:45:45.044Z,275.62
2023-05-01T07:46:49.917Z,270.00
2023-05-01T07:47:45.052Z,264.38
2023-05-01T07:48:45.031Z,270.00
2023-05-01T07:49:44.974Z,275.62
2023-05-01T07:50:44.994Z,281.25
2023-05-01T07:51:44.949Z,292.50
2023-05-01T07:52:44.964Z,292.50
2023-05-01T07:53:44.955Z,298.12
2023-05-01T07:54:44.979Z,298.12
2023-05-01T07:55:44.929Z,292.50
2023-05-01T07:56:44.915Z,286.88
2023-05-01T07:57:44.910Z,275.62
2023-05-01T07:58:44.880Z,264.38
2023-05-01T07:59:44.967Z,247.50
2023-05-01T08:00:44.899Z,230.62
2023-05-01T08:01:44.867Z,213.75
2023-05-01T08:02:44.916Z,196.88
2023-05-01T08:03:45.062Z,180.00
2023-05-01T08:04:44.853Z,174.38
2023-05-01T08:05:44.809Z,163.12
2023-05-01T08:06:44.928Z,151.88
2023-05-01T08:07:44.923Z,146.25
2023-05-01T08:08:44.801Z,140.62
2023-05-01T08:09:44.933Z,140.62
2023-05-01T08:10:44.779Z,146.25
2023-05-01T08:11:44.775Z,151.88
2023-05-01T08:12:44.740Z,157.50
2023-05-01T08:13:44.761Z,163.12
2023-05-01T08:14:44.715Z,168.75
2023-05-01T08:15:44.743Z,174.38
2023-05-01T08:16:44.857Z,185.62
2023-05-01T08:17:44.703Z,191.25
2023-05-01T08:18:44.848Z,196.88
2023-05-01T08:19:44.668Z,202.50
2023-05-01T08:20:44.661Z,208.12
2023-05-01T08:21:44.752Z,208.12
2023-05-01T08:22:44.630Z,213.75
2023-05-01T08:23:44.694Z,225.00
2023-05-01T08:24:44.609Z,225.00
2023-05-01T08:25:44.739Z,230.62
2023-05-01T08:26:44.598Z,230.62
2023-05-01T08:27:44.591Z,236.25
2023-05-01T08:28:44.616Z,241.88
2023-05-01T08:29:44.593Z,247.50
2023-05-01T08:30:44.576Z,247.50
2023-05-01T08:31:44.590Z,247.50
2023-05-01T08:32:44.601Z,247.50
2023-05-01T08:33:44.554Z,264.38
2023-05-01T08:34:44.521Z,264.38
2023-05-01T08:35:44.577Z,275.62
2023-05-01T08:36:44.500Z,286.88
2023-05-01T08:37:44.469Z,292.50
2023-05-01T08:38:44.538Z,298.12
2023-05-01T08:39:44.493Z,309.38
2023-05-01T08:40:44.445Z,320.62
2023-05-01T08:41:44.447Z,337.50
2023-05-01T08:42:44.466Z,360.00
2023-05-01T08:43:44.456Z,382.50
2023-05-01T08:44:44.446Z,399.38
2023-05-01T08:45:44.414Z,405.00
2023-05-01T08:46:44.479Z,410.62
2023-05-01T08:47:44.374Z,416.25
2023-05-01T08:48:44.394Z,421.88
2023-05-01T08:49:44.397Z,421.88
2023-05-01T08:50:44.328Z,416.25
2023-05-01T08:51:44.336Z,427.50
2023-05-01T08:52:44.437Z,427.50
2023-05-01T08:53:44.330Z,421.88
2023-05-01T08:54:44.307Z,416.25
2023-05-01T08:55:44.338Z,416.25
2023-05-01T08:56:44.328Z,416.25
2023-05-01T08:57:44.282Z,421.88
2023-05-01T08:58:44.257Z,405.00
2023-05-01T08:59:44.261Z,382.50
2023-05-01T09:00:44.266Z,371.25
2023-05-01T09:01:44.276Z,382.50
2023-05-01T09:02:44.215Z,382.50
2023-05-01T09:03:44.284Z,376.88
2023-05-01T09:04:44.210Z,376.88
2023-05-01T09:05:44.217Z,365.62
2023-05-01T09:06:44.245Z,354.38
2023-05-01T09:07:44.146Z,360.00
2023-05-01T09:08:44.139Z,365.62
2023-05-01T09:09:44.136Z,371.25
2023-05-01T09:10:44.116Z,365.62
2023-05-01T09:11:44.184Z,365.62
2023-05-01T09:12:44.119Z,371.25
2023-05-01T09:13:44.154Z,376.88
2023-05-01T09:14:44.072Z,371.25
2023-05-01T09:15:44.115Z,371.25
2023-05-01T09:16:44.114Z,365.62
2023-05-01T09:17:44.144Z,388.12
2023-05-01T09:18:44.064Z,410.62
2023-05-01T09:19:44.014Z,416.25
2023-05-01T09:20:44.004Z,405.00
2023-05-01T09:21:44.012Z,388.12
2023-05-01T09:22:44.061Z,393.75
2023-05-01T09:23:43.998Z,399.38
2023-05-01T09:24:43.991Z,399.38
2023-05-01T09:25:43.947Z,388.12
2023-05-01T09:26:43.962Z,365.62
2023-05-01T09:27:43.978Z,354.38
2023-05-01T09:28:44.023Z,371.25
2023-05-01T09:29:43.944Z,376.88
2023-05-01T09:30:43.914Z,376.88
2023-05-01T09:31:43.962Z,376.88
2023-05-01T09:32:43.979Z,365.62
2023-05-01T09:33:43.905Z,348.75
2023-05-01T09:34:43.872Z,343.12
2023-05-01T09:35:43.940Z,343.12
2023-05-01T09:36:43.939Z,343.12
2023-05-01T09:37:43.842Z,343.12
2023-05-01T09:38:43.869Z,331.88
2023-05-01T09:39:43.809Z,309.38
2023-05-01T09:40:43.802Z,292.50
2023-05-01T09:41:43.801Z,298.12
2023-05-01T09:42:43.801Z,309.38
2023-05-01T09:43:43.858Z,320.62
2023-05-01T09:44:43.752Z,320.62
2023-05-01T09:45:44.022Z,315.00
2023-05-01T09:46:43.911Z,298.12
2023-05-01T09:47:43.844Z,286.88
2023-05-01T09:48:43.716Z,303.75
2023-05-01T09:49:43.750Z,331.88
2023-05-01T09:50:43.750Z,343.12
2023-05-01T09:51:43.698Z,337.50
2023-05-01T09:52:43.740Z,320.62
2023-05-01T09:53:43.649Z,298.12
2023-05-01T09:54:43.658Z,286.88
2023-05-01T09:55:43.668Z,275.62
2023-05-01T09:56:43.654Z,275.62
2023-05-01T09:57:43.608Z,292.50
2023-05-01T09:58:43.669Z,326.25
2023-05-01T09:59:43.601Z,354.38
2023-05-01T10:00:43.617Z,376.88
2023-05-01T10:01:43.861Z,388.12
2023-05-01T10:02:43.672Z,393.75
2023-05-01T10:03:43.666Z,388.12
2023-05-01T10:04:43.554Z,388.12
2023-05-01T10:05:43.626Z,393.75
2023-05-01T10:06:43.653Z,388.12
2023-05-01T10:07:43.533Z,360.00
2023-05-01T10:08:43.558Z,343.12
2023-05-01T10:09:43.530Z,331.88
2023-05-01T10:10:43.510Z,337.50
2023-05-01T10:11:43.562Z,348.75
2023-05-01T10:12:43.472Z,354.38
2023-05-01T10:13:43.507Z,348.75
2023-05-01T10:14:43.452Z,348.75
2023-05-01T10:15:43.433Z,348.75
2023-05-01T10:16:43.512Z,360.00
2023-05-01T10:17:43.643Z,376.88
2023-05-01T10:18:43.402Z,388.12
2023-05-01T10:19:43.392Z,393.75
2023-05-01T10:20:43.470Z,410.62
2023-05-01T10:21:43.472Z,416.25
2023-05-01T10:22:43.357Z,410.62
2023-05-01T10:23:43.346Z,410.62
2023-05-01T10:24:43.349Z,427.50
2023-05-01T10:25:43.326Z,433.12
2023-05-01T10:26:43.327Z,433.12
2023-05-01T10:27:43.363Z,450.00
2023-05-01T10:28:43.294Z,461.25
2023-05-01T10:29:43.304Z,461.25
2023-05-01T10:30:43.367Z,455.62
2023-05-01T10:31:43.328Z,450.00
2023-05-01T10:32:43.331Z,444.38
2023-05-01T10:33:43.246Z,427.50
2023-05-01T10:34:43.278Z,416.25
2023-05-01T10:35:43.270Z,421.88
2023-05-01T10:36:43.204Z,438.75
2023-05-01T10:37:43.232Z,444.38
2023-05-01T10:38:43.184Z,444.38
2023-05-01T10:39:43.170Z,427.50
2023-05-01T10:40:43.182Z,399.38
2023-05-01T10:41:43.195Z,365.62
2023-05-01T10:42:43.148Z,348.75
2023-05-01T10:43:43.273Z,343.12
2023-05-01T10:44:43.166Z,354.38
2023-05-01T10:45:43.107Z,365.62
2023-05-01T10:46:43.184Z,371.25
2023-05-01T10:47:43.130Z,365.62
2023-05-01T10:48:43.087Z,365.62
2023-05-01T10:49:43.146Z,393.75
2023-05-01T10:50:43.083Z,399.38
2023-05-01T10:51:43.035Z,376.88
2023-05-01T10:52:43.031Z,354.38
2023-05-01T10:53:43.038Z,371.25
2023-05-01T10:54:43.033Z,421.88
2023-05-01T10:55:43.035Z,461.25
2023-05-01T10:56:43.308Z,489.38
2023-05-01T10:57:43.007Z,511.88
2023-05-01T10:58:42.970Z,517.50
2023-05-01T10:59:43.027Z,528.75
2023-05-01T11:00:42.969Z,540.00
2023-05-01T11:01:43.053Z,545.62
2023-05-01T11:02:43.013Z,545.62
2023-05-01T11:03:42.924Z,556.88
2023-05-01T11:04:42.938Z,568.12
2023-05-01T11:05:43.136Z,573.75
2023-05-01T11:06:43.236Z,568.12
2023-05-01T11:07:42.892Z,562.50
2023-05-01T11:08:43.628Z,551.25
2023-05-01T11:09:42.855Z,551.25
2023-05-01T11:10:42.861Z,556.88
2023-05-01T11:11:42.954Z,562.50
2023-05-01T11:12:42.897Z,562.50
2023-05-01T11:13:42.843Z,562.50
2023-05-01T11:14:42.801Z,556.88
2023-05-01T11:15:42.829Z,523.12
2023-05-01T11:16:53.807Z,506.25
2023-05-01T11:17:43.264Z,517.50
2023-05-01T11:18:42.896Z,540.00
2023-05-01T11:19:42.777Z,540.00
2023-05-01T11:20:42.756Z,523.12
2023-05-01T11:21:42.811Z,517.50
2023-05-01T11:22:42.733Z,528.75
2023-05-01T11:23:42.739Z,545.62
2023-05-01T11:24:42.766Z,568.12
2023-05-01T11:25:42.706Z,579.38
2023-05-01T11:26:43.459Z,601.88
2023-05-01T11:27:42.931Z,618.75
2023-05-01T11:28:42.693Z,630.00
2023-05-01T11:29:42.640Z,630.00
2023-05-01T11:30:42.674Z,607.50
2023-05-01T11:31:42.778Z,585.00
2023-05-01T11:32:42.643Z,573.75
2023-05-01T11:33:42.603Z,590.62
2023-05-01T11:34:42.802Z,590.62
2023-05-01T11:35:42.881Z,585.00
2023-05-01T11:36:42.583Z,568.12
2023-05-01T11:37:42.604Z,540.00
2023-05-01T11:38:42.577Z,534.38
2023-05-01T11:39:42.650Z,540.00
2023-05-01T11:40:42.519Z,551.25
2023-05-01T11:41:42.571Z,562.50
2023-05-01T11:42:42.494Z,551.25
2023-05-01T11:43:42.523Z,545.62
2023-05-01T11:44:42.596Z,523.12
2023-05-01T11:45:42.560Z,489.38
2023-05-01T11:46:53.161Z,438.75
2023-05-01T11:47:42.473Z,405.00
2023-05-01T11:48:42.452Z,393.75
2023-05-01T11:49:42.528Z,410.62
2023-05-01T11:50:42.457Z,421.88
2023-05-01T11:51:42.475Z,433.12
2023-05-01T11:52:42.413Z,444.38
2023-05-01T11:53:42.428Z,466.88
2023-05-01T11:54:42.387Z,506.25
2023-05-01T11:55:42.382Z,540.00
2023-05-01T11:56:42.636Z,568.12
2023-05-01T11:57:42.447Z,585.00
2023-05-01T11:58:42.382Z,596.25
2023-05-01T11:59:42.324Z,579.38
2023-05-01T12:00:42.357Z,540.00
2023-05-01T12:01:42.360Z,495.00
2023-05-01T12:02:43.048Z,472.50
2023-05-01T12:03:43.098Z,466.88
2023-05-01T12:04:42.294Z,444.38
2023-05-01T12:05:42.305Z,382.50
2023-05-01T12:06:42.341Z,343.12
2023-05-01T12:07:42.295Z,343.12
2023-05-01T12:08:42.231Z,371.25
2023-05-01T12:09:42.254Z,421.88
2023-05-01T12:10:42.524Z,461.25
2023-05-01T12:11:42.258Z,495.00
2023-05-01T12:12:42.250Z,506.25
2023-05-01T12:13:42.190Z,511.88
2023-05-01T12:14:42.161Z,517.50
2023-05-01T12:15:42.284Z,506.25
2023-05-01T12:16:57.095Z,483.75
2023-05-01T12:17:42.165Z,466.88
2023-05-01T12:18:42.188Z,461.25
2023-05-01T12:19:42.111Z,472.50
2023-05-01T12:20:42.135Z,489.38
2023-05-01T12:21:49.687Z,500.62
2023-05-01T12:22:42.073Z,523.12
2023-05-01T12:23:42.090Z,545.62
2023-05-01T12:24:42.109Z,551.25
2023-05-01T12:25:42.226Z,545.62
2023-05-01T12:26:42.129Z,540.00
2023-05-01T12:27:42.048Z,534.38
2023-05-01T12:28:42.058Z,523.12
2023-05-01T12:29:42.040Z,517.50
2023-05-01T12:30:42.133Z,517.50
2023-05-01T12:31:42.044Z,523.12
2023-05-01T12:32:42.016Z,528.75
2023-05-01T12:33:42.082Z,534.38
2023-05-01T12:34:42.076Z,540.00
2023-05-01T12:35:41.932Z,545.62
2023-05-01T12:36:42.002Z,545.62
2023-05-01T12:37:42.070Z,540.00
2023-05-01T12:38:41.941Z,534.38
2023-05-01T12:39:41.929Z,534.38
2023-05-01T12:40:41.885Z,528.75
2023-05-01T12:41:42.133Z,534.38
2023-05-01T12:42:41.896Z,540.00
2023-05-01T12:43:43.743Z,540.00
2023-05-01T12:44:41.879Z,540.00
2023-05-01T12:45:41.879Z,540.00
2023-05-01T12:46:41.938Z,534.38
2023-05-01T12:47:41.987Z,528.75
2023-05-01T12:48:41.825Z,517.50
2023-05-01T12:49:41.807Z,523.12
2023-05-01T12:50:41.849Z,528.75
2023-05-01T12:51:41.946Z,534.38
2023-05-01T12:52:41.779Z,545.62
2023-05-01T12:53:41.778Z,556.88
2023-05-01T12:54:41.764Z,562.50
2023-05-01T12:55:41.803Z,562.50
2023-05-01T12:56:41.835Z,556.88
2023-05-01T12:57:41.762Z,545.62
2023-05-01T12:58:41.736Z,540.00
2023-05-01T12:59:41.792Z,528.75
2023-05-01T13:00:41.702Z,523.12
2023-05-01T13:01:41.753Z,523.12
2023-05-01T13:02:41.749Z,511.88
2023-05-01T13:03:41.659Z,511.88
2023-05-01T13:04:41.678Z,517.50
2023-05-01T13:05:41.674Z,523.12
2023-05-01T13:06:41.698Z,523.12
2023-05-01T13:07:41.627Z,523.12
2023-05-01T13:08:41.579Z,523.12
2023-05-01T13:09:41.609Z,534.38
2023-05-01T13:10:41.613Z,540.00
2023-05-01T13:11:41.558Z,540.00
2023-05-01T13:12:41.588Z,523.12
2023-05-01T13:13:41.583Z,500.62
2023-05-01T13:14:41.529Z,472.50
2023-05-01T13:15:41.510Z,444.38
2023-05-01T13:16:41.612Z,416.25
2023-05-01T13:17:41.548Z,388.12
2023-05-01T13:18:42.531Z,360.00
2023-05-01T13:19:41.464Z,343.12
2023-05-01T13:20:41.470Z,320.62
2023-05-01T13:21:41.487Z,292.50
2023-05-01T13:22:41.428Z,258.75
2023-05-01T13:23:41.438Z,230.62
2023-05-01T13:24:41.552Z,208.12
2023-05-01T13:25:41.436Z,191.25
2023-05-01T13:26:41.391Z,191.25
2023-05-01T13:27:41.396Z,196.88
2023-05-01T13:28:41.377Z,213.75
2023-05-01T13:29:41.502Z,230.62
2023-05-01T13:30:41.436Z,247.50
2023-05-01T13:31:41.461Z,258.75
2023-05-01T13:32:41.386Z,270.00
2023-05-01T13:33:41.333Z,281.25
2023-05-01T13:34:41.317Z,286.88
2023-05-01T13:35:41.339Z,286.88
2023-05-01T13:36:41.305Z,292.50
2023-05-01T13:37:41.278Z,292.50
2023-05-01T13:38:41.292Z,281.25
2023-05-01T13:39:41.266Z,258.75
2023-05-01T13:40:41.242Z,225.00
2023-05-01T13:41:41.234Z,185.62
2023-05-01T13:42:41.249Z,146.25
2023-05-01T13:43:41.270Z,112.50
2023-05-01T13:44:41.323Z,95.62
2023-05-01T13:45:41.308Z,95.62
2023-05-01T13:46:41.331Z,118.12
2023-05-01T13:47:41.198Z,151.88
2023-05-01T13:48:41.183Z,191.25
2023-05-01T13:49:41.163Z,230.62
2023-05-01T13:50:41.504Z,264.38
2023-05-01T13:51:41.189Z,292.50
2023-05-01T13:52:41.188Z,320.62
2023-05-01T13:53:41.134Z,337.50
2023-05-01T13:54:41.138Z,354.38
2023-05-01T13:55:41.083Z,348.75
2023-05-01T13:56:41.088Z,337.50
2023-05-01T13:57:41.083Z,337.50
2023-05-01T13:58:41.168Z,348.75
2023-05-01T13:59:41.134Z,348.75
2023-05-01T14:00:41.056Z,337.50
2023-05-01T14:01:41.131Z,326.25